Time;durP1;ratioP1;P1;durP2;ratioP2;P2;SDS_P1;SDS_P2;PMS_P1;PMS_P2;Temp;Humidity;BMP_temperature;BMP_pressure;BME280_temperature;BME280_humidity;BME280_pressure;Samples;Min_cycle;Max_cycle;Signal;HPM_P1;HPM_P2
2024/01/29 00:02:17;;;;;;;0.00;0.00;;;25.70;41.50;;;;;;5031192;28;20230;-45
2024/01/29 00:04:48;;;;;;;0.00;0.00;;;25.60;41.50;;;;;;5032079;28;20199;-47
2024/01/29 00:07:21;;;;;;;0.00;0.00;;;25.70;41.50;;;;;;5030594;28;20219;-47
2024/01/29 00:09:52;;;;;;;0.00;0.00;;;25.70;41.40;;;;;;5031463;28;20200;-46
2024/01/29 00:12:22;;;;;;;0.00;0.00;;;25.80;41.50;;;;;;5030411;28;20214;-46
2024/01/29 00:14:53;;;;;;;0.00;0.00;;;25.80;41.40;;;;;;5031061;28;20203;-50
2024/01/29 00:17:24;;;;;;;0.00;0.00;;;25.80;41.40;;;;;;5031779;28;20228;-45
2024/01/29 00:19:54;;;;;;;0.00;0.00;;;25.80;41.30;;;;;;5030617;28;20586;-47
2024/01/29 00:22:28;;;;;;;0.00;0.00;;;25.80;41.30;;;;;;5029872;28;20220;-48
2024/01/29 00:24:58;;;;;;;0.00;0.00;;;25.90;41.40;;;;;;5030728;28;20238;-46
2024/01/29 00:27:29;;;;;;;0.00;0.00;;;25.90;41.30;;;;;;5031036;28;20223;-48
2024/01/29 00:30:01;;;;;;;0.00;0.00;;;25.90;41.40;;;;;;5030526;28;20250;-43
2024/01/29 00:32:32;;;;;;;0.00;0.00;;;25.90;41.30;;;;;;5030782;28;20200;-47
2024/01/29 00:35:02;;;;;;;0.00;0.00;;;26.00;41.20;;;;;;5030385;28;20196;-48
2024/01/29 00:37:38;;;;;;;0.00;0.00;;;26.00;41.20;;;;;;5029644;28;20516;-47
2024/01/29 00:40:09;;;;;;;0.00;0.00;;;26.00;41.20;;;;;;5030919;28;20636;-44
2024/01/29 00:42:40;;;;;;;0.00;0.00;;;26.10;41.20;;;;;;5029342;28;20232;-45
2024/01/29 00:45:11;;;;;;;0.00;0.00;;;26.10;41.20;;;;;;5031381;28;20657;-43
2024/01/29 00:47:42;;;;;;;0.00;0.00;;;26.10;41.10;;;;;;5029953;28;20224;-45
2024/01/29 00:50:13;;;;;;;0.00;0.00;;;26.20;41.10;;;;;;5030402;28;20223;-44
2024/01/29 00:52:46;;;;;;;0.00;0.00;;;26.20;41.20;;;;;;5030191;28;20211;-44
2024/01/29 00:55:16;;;;;;;0.00;0.00;;;26.20;41.10;;;;;;5030880;28;20200;-44
2024/01/29 00:57:47;;;;;;;0.00;0.00;;;26.20;41.00;;;;;;5030062;28;20215;-47
2024/01/29 01:00:18;;;;;;;0.00;0.00;;;26.30;41.00;;;;;;5030144;28;20196;-44
2024/01/29 01:02:49;;;;;;;0.00;0.00;;;26.30;40.90;;;;;;5029865;28;20263;-46
2024/01/29 01:05:20;;;;;;;0.00;0.00;;;26.30;40.90;;;;;;5029339;28;20200;-44
2024/01/29 01:07:52;;;;;;;0.00;0.00;;;26.40;40.90;;;;;;5030326;28;20219;-46
2024/01/29 01:10:23;;;;;;;0.00;0.00;;;26.40;40.90;;;;;;5044421;28;20206;-43
2024/01/29 01:12:54;;;;;;;0.00;0.00;;;26.40;40.90;;;;;;5047563;28;20195;-46
2024/01/29 01:15:24;;;;;;;0.00;0.00;;;26.40;40.80;;;;;;5029195;28;20653;-51
2024/01/29 01:17:56;;;;;;;0.00;0.00;;;26.40;40.80;;;;;;5029955;28;20243;-44
2024/01/29 01:20:27;;;;;;;0.00;0.00;;;26.50;40.80;;;;;;5029299;28;21012;-50
2024/01/29 01:23:00;;;;;;;0.00;0.00;;;26.50;40.80;;;;;;5028990;28;20255;-44
2024/01/29 01:25:30;;;;;;;0.00;0.00;;;26.50;40.80;;;;;;5029571;28;20566;-42
2024/01/29 01:28:01;;;;;;;0.00;0.00;;;26.50;40.80;;;;;;5029913;28;20216;-43
2024/01/29 01:30:32;;;;;;;0.00;0.00;;;26.50;40.80;;;;;;5035587;28;20200;-43
2024/01/29 01:33:02;;;;;;;0.00;0.00;;;26.60;40.80;;;;;;5033275;28;20196;-44
2024/01/29 01:35:33;;;;;;;0.00;0.00;;;26.60;40.80;;;;;;5033240;28;20201;-42
2024/01/29 01:38:06;;;;;;;0.00;0.00;;;26.60;40.80;;;;;;5033357;28;20201;-46
2024/01/29 01:40:37;;;;;;;0.00;0.00;;;26.70;40.70;;;;;;5033146;28;20200;-46
2024/01/29 01:43:19;;;;;;;0.00;0.00;;;26.70;40.60;;;;;;5032270;28;20220;-42
2024/01/29 01:46:03;;;;;;;0.00;0.00;;;26.70;40.70;;;;;;5032559;28;20196;-46
2024/01/29 01:48:37;;;;;;;0.00;0.00;;;26.80;40.70;;;;;;5032392;28;20204;-46
2024/01/29 01:51:08;;;;;;;0.00;0.00;;;26.80;40.50;;;;;;5032349;28;20192;-42
2024/01/29 01:53:43;;;;;;;0.00;0.00;;;26.80;40.40;;;;;;5032202;28;20669;-44
2024/01/29 01:56:14;;;;;;;0.00;0.00;;;26.80;40.30;;;;;;5032644;28;20215;-44
2024/01/29 01:58:45;;;;;;;0.00;0.00;;;26.90;40.40;;;;;;5032661;28;20646;-44
2024/01/29 02:01:18;;;;;;;0.00;0.00;;;26.90;40.40;;;;;;5032556;28;20578;-43
2024/01/29 02:03:49;;;;;;;0.00;0.00;;;26.90;41.00;;;;;;5032416;28;20232;-44
2024/01/29 02:06:20;;;;;;;0.00;0.00;;;26.90;40.40;;;;;;5032192;28;20718;-43
2024/01/29 02:08:53;;;;;;;0.00;0.00;;;27.00;40.40;;;;;;5032174;28;20200;-44
2024/01/29 02:11:24;;;;;;;0.00;0.00;;;27.00;40.40;;;;;;5032711;28;20200;-46
2024/01/29 02:13:54;;;;;;;0.00;0.00;;;27.00;40.40;;;;;;5032212;28;20303;-45
2024/01/29 02:16:25;;;;;;;0.00;0.00;;;27.00;40.60;;;;;;5032301;28;20224;-47
2024/01/29 02:18:56;;;;;;;0.00;0.00;;;27.00;40.70;;;;;;5032050;28;20302;-43
2024/01/29 02:21:26;;;;;;;0.00;0.00;;;27.00;40.60;;;;;;5032181;28;20207;-42
2024/01/29 02:23:59;;;;;;;0.00;0.00;;;27.10;40.70;;;;;;5032138;28;20231;-43
2024/01/29 02:26:30;;;;;;;0.00;0.00;;;27.10;40.60;;;;;;5031883;28;20577;-43
2024/01/29 02:29:00;;;;;;;0.00;0.00;;;27.10;40.50;;;;;;5031564;28;20203;-44
2024/01/29 02:31:31;;;;;;;0.00;0.00;;;27.20;40.50;;;;;;5031499;28;20202;-43
2024/01/29 02:34:02;;;;;;;0.00;0.00;;;27.20;40.50;;;;;;5031296;28;20204;-45
2024/01/29 02:36:33;;;;;;;0.00;0.00;;;27.30;40.50;;;;;;5031434;28;20222;-44
2024/01/29 02:39:07;;;;;;;0.00;0.00;;;27.30;40.40;;;;;;5032223;28;20203;-41
2024/01/29 02:41:37;;;;;;;0.00;0.00;;;27.30;40.40;;;;;;5032093;28;20206;-41
2024/01/29 02:44:08;;;;;;;0.00;0.00;;;27.30;40.30;;;;;;5031930;28;20718;-40
2024/01/29 02:46:42;;;;;;;0.00;0.00;;;27.40;40.30;;;;;;5031430;28;20227;-41
2024/01/29 02:49:13;;;;;;;0.00;0.00;;;27.40;40.30;;;;;;5031404;28;20672;-44
2024/01/29 02:51:44;;;;;;;0.00;0.00;;;27.40;40.10;;;;;;5032129;28;20614;-45
2024/01/29 02:54:16;;;;;;;0.00;0.00;;;27.40;40.00;;;;;;5031610;28;20207;-44
2024/01/29 02:56:47;;;;;;;0.00;0.00;;;27.40;39.90;;;;;;5031712;28;20254;-43
2024/01/29 02:59:18;;;;;;;0.00;0.00;;;27.40;39.80;;;;;;5031888;28;20196;-45
2024/01/29 03:01:48;;;;;;;0.00;0.00;;;27.50;39.80;;;;;;5031722;28;20192;-41
2024/01/29 03:04:19;;;;;;;0.00;0.00;;;27.50;39.80;;;;;;5031464;28;20688;-43
2024/01/29 03:06:50;;;;;;;0.00;0.00;;;27.50;39.80;;;;;;5029327;28;20226;-44
2024/01/29 03:09:22;;;;;;;0.00;0.00;;;27.60;39.80;;;;;;5028428;28;20192;-40
2024/01/29 03:11:53;;;;;;;0.00;0.00;;;27.60;39.80;;;;;;5043498;28;20196;-41
2024/01/29 03:14:24;;;;;;;0.00;0.00;;;27.60;39.80;;;;;;5026335;28;20208;-41
2024/01/29 03:16:55;;;;;;;0.00;0.00;;;27.70;39.80;;;;;;5028194;28;20228;-45
2024/01/29 03:19:25;;;;;;;0.00;0.00;;;27.70;39.70;;;;;;5027904;28;20210;-45
2024/01/29 03:21:56;;;;;;;0.00;0.00;;;27.70;39.60;;;;;;5027498;28;20627;-40
2024/01/29 03:24:29;;;;;;;0.00;0.00;;;27.80;39.70;;;;;;5027773;28;20216;-46
2024/01/29 03:26:59;;;;;;;0.00;0.00;;;27.80;39.60;;;;;;5027570;28;20323;-44
2024/01/29 03:29:30;;;;;;;0.00;0.00;;;27.80;39.50;;;;;;5028006;28;20207;-48
2024/01/29 03:32:01;;;;;;;0.00;0.00;;;27.80;39.30;;;;;;5029460;28;20199;-48
2024/01/29 03:34:31;;;;;;;0.00;0.00;;;27.90;39.30;;;;;;5027583;28;20204;-45
2024/01/29 03:37:02;;;;;;;0.00;0.00;;;27.90;39.20;;;;;;5028301;28;20230;-45
2024/01/29 03:39:35;;;;;;;0.00;0.00;;;27.90;39.10;;;;;;5027620;28;20206;-48
2024/01/29 03:42:06;;;;;;;0.00;0.00;;;27.90;39.00;;;;;;5027512;28;20196;-48
2024/01/29 03:44:36;;;;;;;0.00;0.00;;;28.00;39.00;;;;;;5027313;28;20242;-47
2024/01/29 03:47:07;;;;;;;0.00;0.00;;;28.00;39.00;;;;;;5027148;28;20253;-45
2024/01/29 03:49:38;;;;;;;0.00;0.00;;;28.00;38.90;;;;;;5027153;28;20204;-46
2024/01/29 03:52:09;;;;;;;0.00;0.00;;;28.10;39.00;;;;;;5028231;28;20200;-48
2024/01/29 03:54:42;;;;;;;0.00;0.00;;;28.10;38.90;;;;;;5027237;28;20204;-45
2024/01/29 03:57:12;;;;;;;0.00;0.00;;;28.10;38.80;;;;;;5027035;28;20216;-48
2024/01/29 03:59:43;;;;;;;0.00;0.00;;;28.20;38.90;;;;;;5027886;28;20207;-40
2024/01/29 04:02:14;;;;;;;0.00;0.00;;;28.20;38.80;;;;;;5027419;28;20704;-49
2024/01/29 04:04:48;;;;;;;0.00;0.00;;;28.20;38.80;;;;;;5026524;28;20227;-47
2024/01/29 04:07:18;;;;;;;0.00;0.00;;;28.20;38.70;;;;;;5025463;28;20231;-44
2024/01/29 04:09:51;;;;;;;0.00;0.00;;;28.30;38.60;;;;;;5026501;28;20211;-46
2024/01/29 04:12:22;;;;;;;0.00;0.00;;;28.30;38.50;;;;;;5026341;28;20215;-47
2024/01/29 04:14:52;;;;;;;0.00;0.00;;;28.30;38.50;;;;;;5027784;28;20208;-48
2024/01/29 04:17:23;;;;;;;0.00;0.00;;;28.30;38.40;;;;;;5027390;28;20228;-45
2024/01/29 04:19:54;;;;;;;0.00;0.00;;;28.40;38.50;;;;;;5031097;28;20204;-44
2024/01/29 04:22:25;;;;;;;0.00;0.00;;;28.40;38.40;;;;;;5031608;28;20652;-45
2024/01/29 04:24:58;;;;;;;0.00;0.00;;;28.50;38.30;;;;;;5030694;28;20223;-46
2024/01/29 04:27:28;;;;;;;0.00;0.00;;;28.50;38.30;;;;;;5030878;28;20722;-47
2024/01/29 04:30:00;;;;;;;0.00;0.00;;;28.60;38.20;;;;;;5030453;28;20202;-48
2024/01/29 04:32:31;;;;;;;0.00;0.00;;;28.60;38.20;;;;;;5030797;28;20196;-46
2024/01/29 04:35:01;;;;;;;0.00;0.00;;;28.60;38.20;;;;;;5029872;28;20196;-45
2024/01/29 04:37:32;;;;;;;0.00;0.00;;;28.60;38.20;;;;;;5030339;28;20592;-43
2024/01/29 04:40:05;;;;;;;0.00;0.00;;;28.70;38.10;;;;;;5030216;28;20200;-46
2024/01/29 04:42:36;;;;;;;0.00;0.00;;;28.70;38.00;;;;;;5029386;28;20644;-40
2024/01/29 04:45:07;;;;;;;0.00;0.00;;;28.70;38.00;;;;;;5030604;28;20228;-45
2024/01/29 04:47:38;;;;;;;0.00;0.00;;;28.70;37.90;;;;;;5030643;28;20307;-44
2024/01/29 04:50:09;;;;;;;0.00;0.00;;;28.80;38.00;;;;;;5030069;28;20208;-40
2024/01/29 04:52:40;;;;;;;0.00;0.00;;;28.70;37.90;;;;;;5030343;28;20581;-44
2024/01/29 04:55:13;;;;;;;0.00;0.00;;;28.80;37.90;;;;;;5029847;28;20207;-42
2024/01/29 04:57:43;;;;;;;0.00;0.00;;;28.80;37.70;;;;;;5030022;28;20724;-45
2024/01/29 05:00:15;;;;;;;0.00;0.00;;;28.80;37.70;;;;;;5030276;28;20196;-45
2024/01/29 05:02:47;;;;;;;0.00;0.00;;;28.90;37.70;;;;;;5029951;28;20200;-47
2024/01/29 05:05:19;;;;;;;0.00;0.00;;;28.90;37.70;;;;;;5030413;28;20235;-44
2024/01/29 05:07:51;;;;;;;0.00;0.00;;;28.90;37.70;;;;;;5028962;28;20556;-42
2024/01/29 05:10:24;;;;;;;0.00;0.00;;;28.90;37.60;;;;;;5029585;28;20196;-47
2024/01/29 05:12:54;;;;;;;0.00;0.00;;;29.00;37.70;;;;;;5029839;28;20229;-46
2024/01/29 05:15:27;;;;;;;0.00;0.00;;;29.00;37.60;;;;;;5029362;28;20580;-46
2024/01/29 05:17:57;;;;;;;0.00;0.00;;;29.10;37.70;;;;;;5037011;28;20228;-46
2024/01/29 05:20:29;;;;;;;0.00;0.00;;;29.10;37.70;;;;;;5029937;28;20208;-46
2024/01/29 05:23:00;;;;;;;0.00;0.00;;;29.10;37.60;;;;;;5029807;28;20200;-47
2024/01/29 05:25:33;;;;;;;0.00;0.00;;;29.10;37.60;;;;;;5045747;28;20219;-46
2024/01/29 05:28:04;;;;;;;0.00;0.00;;;29.10;37.60;;;;;;5048843;28;20707;-48
2024/01/29 05:30:35;;;;;;;0.00;0.00;;;29.10;37.60;;;;;;5049294;28;20195;-46
2024/01/29 05:33:06;;;;;;;0.00;0.00;;;29.10;37.60;;;;;;5034372;28;20200;-45
2024/01/29 05:35:36;;;;;;;0.00;0.00;;;29.10;37.60;;;;;;5029741;28;20203;-51
2024/01/29 05:38:10;;;;;;;0.00;0.00;;;29.10;37.60;;;;;;5029712;28;20588;-46
2024/01/29 05:40:42;;;;;;;0.00;0.00;;;29.20;37.80;;;;;;5029569;28;20204;-49
2024/01/29 05:43:13;;;;;;;0.00;0.00;;;29.20;37.60;;;;;;5029688;28;20188;-48
2024/01/29 05:45:46;;;;;;;0.00;0.00;;;29.20;37.70;;;;;;5029693;28;20203;-47
2024/01/29 05:48:17;;;;;;;0.00;0.00;;;29.20;37.60;;;;;;5028388;28;20578;-49
2024/01/29 05:50:48;;;;;;;0.00;0.00;;;29.20;37.60;;;;;;5015900;28;20195;-50
2024/01/29 05:53:20;;;;;;;0.00;0.00;;;29.20;37.70;;;;;;5028303;28;20467;-46
2024/01/29 05:55:52;;;;;;;0.00;0.00;;;29.20;37.70;;;;;;5028552;28;20250;-48
2024/01/29 05:58:23;;;;;;;0.00;0.00;;;29.20;37.70;;;;;;5029258;28;20211;-50
2024/01/29 06:00:54;;;;;;;0.00;0.00;;;29.20;37.80;;;;;;5028563;28;20291;-45
2024/01/29 06:03:24;;;;;;;0.00;0.00;;;29.20;37.80;;;;;;5028673;28;20572;-47
2024/01/29 06:05:55;;;;;;;0.00;0.00;;;29.30;37.80;;;;;;5029051;28;20200;-47
2024/01/29 06:08:26;;;;;;;0.00;0.00;;;29.30;37.90;;;;;;5028275;28;20585;-50
2024/01/29 06:10:59;;;;;;;0.00;0.00;;;29.30;37.80;;;;;;5028168;28;20203;-46
2024/01/29 06:13:29;;;;;;;0.00;0.00;;;29.30;37.80;;;;;;5027797;28;20667;-46
2024/01/29 06:16:01;;;;;;;0.00;0.00;;;29.30;37.70;;;;;;5028128;28;20208;-43
2024/01/29 06:18:31;;;;;;;0.00;0.00;;;29.30;37.60;;;;;;5029069;28;20528;-45
2024/01/29 06:21:02;;;;;;;0.00;0.00;;;29.30;37.50;;;;;;5029243;28;20188;-46
2024/01/29 06:23:33;;;;;;;0.00;0.00;;;29.30;38.10;;;;;;5027791;28;20208;-46
2024/01/29 06:26:06;;;;;;;0.00;0.00;;;29.20;37.40;;;;;;5028643;28;20200;-59
2024/01/29 06:28:40;;;;;;;0.00;0.00;;;29.20;37.40;;;;;;5028060;28;20203;-60
2024/01/29 06:31:11;;;;;;;0.00;0.00;;;29.20;37.00;;;;;;5027557;28;20711;-46
2024/01/29 06:33:42;;;;;;;0.00;0.00;;;29.10;36.80;;;;;;5028438;28;20226;-50
2024/01/29 06:36:18;;;;;;;0.00;0.00;;;29.00;36.80;;;;;;5028840;28;20196;-49
2024/01/29 06:38:49;;;;;;;0.00;0.00;;;28.80;36.90;;;;;;5028023;28;20227;-50
2024/01/29 06:41:26;;;;;;;0.00;0.00;;;28.80;37.20;;;;;;5028015;28;20204;-44
2024/01/29 06:43:57;;;;;;;0.00;0.00;;;28.70;37.30;;;;;;5027721;28;20206;-44
2024/01/29 06:46:27;;;;;;;0.00;0.00;;;28.70;37.40;;;;;;5027769;28;20269;-47
2024/01/29 06:48:58;;;;;;;0.00;0.00;;;28.70;37.50;;;;;;5028006;28;20204;-47
2024/01/29 06:51:29;;;;;;;0.00;0.00;;;28.70;37.60;;;;;;5033920;28;20195;-48
2024/01/29 06:54:03;;;;;;;0.00;0.00;;;28.60;37.60;;;;;;5051782;28;20195;-46
2024/01/29 06:56:36;;;;;;;0.00;0.00;;;28.60;37.70;;;;;;5051721;28;20222;-44
2024/01/29 06:59:07;;;;;;;0.00;0.00;;;28.60;37.80;;;;;;5051723;28;20202;-46
2024/01/29 07:01:37;;;;;;;0.00;0.00;;;28.60;38.50;;;;;;5051066;28;20196;-47
2024/01/29 07:04:08;;;;;;;0.00;0.00;;;28.60;37.90;;;;;;5050898;28;20219;-45
2024/01/29 07:06:39;;;;;;;0.00;0.00;;;28.60;38.00;;;;;;5051259;28;20215;-44
2024/01/29 07:09:09;;;;;;;0.00;0.00;;;28.60;38.10;;;;;;5051224;28;20616;-47
2024/01/29 07:11:42;;;;;;;0.00;0.00;;;28.60;38.10;;;;;;5051317;28;20195;-46
2024/01/29 07:14:13;;;;;;;0.00;0.00;;;28.60;38.20;;;;;;5045085;28;20207;-46
2024/01/29 07:16:43;;;;;;;0.00;0.00;;;28.60;38.20;;;;;;5010858;28;20247;-46
2024/01/29 07:19:14;;;;;;;0.00;0.00;;;28.60;38.30;;;;;;5025264;28;20203;-46
2024/01/29 07:21:45;;;;;;;0.00;0.00;;;28.50;38.30;;;;;;5031487;28;20203;-46
2024/01/29 07:24:15;;;;;;;0.00;0.00;;;28.50;38.30;;;;;;5031865;28;20227;-46
2024/01/29 07:26:48;;;;;;;0.00;0.00;;;28.50;38.40;;;;;;5031368;28;20212;-48
2024/01/29 07:29:19;;;;;;;0.00;0.00;;;28.50;38.40;;;;;;5031406;28;20203;-46
2024/01/29 07:31:52;;;;;;;0.00;0.00;;;28.50;38.50;;;;;;5029350;28;20215;-45
2024/01/29 07:34:23;;;;;;;0.00;0.00;;;28.50;39.20;;;;;;5027483;28;20207;-47
2024/01/29 07:36:54;;;;;;;0.00;0.00;;;28.40;38.50;;;;;;5027559;28;20273;-47
2024/01/29 07:39:25;;;;;;;0.00;0.00;;;28.40;38.60;;;;;;5028125;28;20200;-47
2024/01/29 07:41:57;;;;;;;0.00;0.00;;;28.40;38.70;;;;;;5027745;28;20664;-44
2024/01/29 07:44:29;;;;;;;0.00;0.00;;;28.40;38.70;;;;;;5027391;28;20220;-43
2024/01/29 07:47:00;;;;;;;0.00;0.00;;;28.40;38.80;;;;;;5027061;28;20635;-48
2024/01/29 07:49:31;;;;;;;0.00;0.00;;;28.30;38.80;;;;;;5027574;28;20676;-47
2024/01/29 07:52:02;;;;;;;0.00;0.00;;;28.30;38.80;;;;;;5029195;28;20283;-43
2024/01/29 07:54:33;;;;;;;0.00;0.00;;;28.30;38.90;;;;;;5031822;28;20204;-42
2024/01/29 07:57:05;;;;;;;0.00;0.00;;;28.30;38.90;;;;;;5030710;28;20216;-45
2024/01/29 07:59:36;;;;;;;0.00;0.00;;;28.20;39.00;;;;;;5031014;28;20203;-46
2024/01/29 08:02:10;;;;;;;0.00;0.00;;;28.20;39.00;;;;;;5030878;28;20278;-47
2024/01/29 08:04:41;;;;;;;0.00;0.00;;;28.20;39.00;;;;;;5031045;28;20238;-44
2024/01/29 08:07:12;;;;;;;0.00;0.00;;;28.20;39.10;;;;;;5031489;28;20224;-45
2024/01/29 08:09:43;;;;;;;0.00;0.00;;;28.20;39.10;;;;;;5030851;28;20207;-43
2024/01/29 08:12:15;;;;;;;0.00;0.00;;;28.10;39.10;;;;;;5031706;28;20206;-46
2024/01/29 08:14:46;;;;;;;0.00;0.00;;;28.10;39.10;;;;;;5030503;28;20195;-50
2024/01/29 08:17:17;;;;;;;0.00;0.00;;;28.10;39.10;;;;;;5030892;28;20224;-48
2024/01/29 08:19:47;;;;;;;0.00;0.00;;;28.10;39.20;;;;;;5030360;28;20204;-47
2024/01/29 08:22:18;;;;;;;0.00;0.00;;;28.00;39.10;;;;;;5030502;28;20211;-45
2024/01/29 08:24:49;;;;;;;0.00;0.00;;;28.10;39.20;;;;;;5030598;28;20220;-43
2024/01/29 08:27:21;;;;;;;0.00;0.00;;;28.00;39.20;;;;;;5030436;28;20212;-49
2024/01/29 08:29:52;;;;;;;0.00;0.00;;;28.00;39.20;;;;;;5031079;28;20647;-43
2024/01/29 08:32:23;;;;;;;0.00;0.00;;;28.00;39.20;;;;;;5030446;28;20206;-46
2024/01/29 08:34:54;;;;;;;0.00;0.00;;;28.00;39.20;;;;;;5030378;28;20197;-46
2024/01/29 08:37:25;;;;;;;0.00;0.00;;;28.00;39.20;;;;;;5030715;28;20220;-46
2024/01/29 08:39:56;;;;;;;0.00;0.00;;;27.90;39.30;;;;;;5030449;28;20207;-45
2024/01/29 08:42:28;;;;;;;0.00;0.00;;;27.90;39.30;;;;;;5029565;28;20192;-42
2024/01/29 08:44:59;;;;;;;0.00;0.00;;;27.90;39.30;;;;;;5029749;28;20232;-43
2024/01/29 08:47:29;;;;;;;0.00;0.00;;;27.90;40.00;;;;;;5037369;28;20216;-44
2024/01/29 08:50:00;;;;;;;0.00;0.00;;;27.80;39.30;;;;;;5010739;28;20197;-42
2024/01/29 08:52:31;;;;;;;0.00;0.00;;;27.80;39.40;;;;;;5010193;28;20209;-45
2024/01/29 08:55:02;;;;;;;0.00;0.00;;;27.80;39.40;;;;;;5011084;28;20569;-44
2024/01/29 08:57:34;;;;;;;0.00;0.00;;;27.80;39.30;;;;;;5010868;28;20220;-42
2024/01/29 09:00:06;;;;;;;0.00;0.00;;;27.80;39.30;;;;;;5025544;28;20204;-42
2024/01/29 09:02:37;;;;;;;0.00;0.00;;;27.80;39.30;;;;;;5029939;28;20605;-43
2024/01/29 09:05:08;;;;;;;0.00;0.00;;;27.80;39.40;;;;;;5029195;28;20729;-41
2024/01/29 09:07:39;;;;;;;0.00;0.00;;;27.70;39.30;;;;;;5036622;28;20233;-45
2024/01/29 09:10:11;;;;;;;0.00;0.00;;;27.70;39.30;;;;;;5049959;28;20191;-43
2024/01/29 09:12:44;;;;;;;0.00;0.00;;;27.70;39.20;;;;;;5043657;28;20226;-42
2024/01/29 09:15:15;;;;;;;0.00;0.00;;;27.70;39.20;;;;;;5029321;28;20204;-48
2024/01/29 09:17:46;;;;;;;0.00;0.00;;;27.70;39.20;;;;;;5029193;28;20234;-49
2024/01/29 09:20:17;;;;;;;0.00;0.00;;;27.70;39.20;;;;;;5030094;28;20200;-50
2024/01/29 09:22:48;;;;;;;0.00;0.00;;;27.70;39.20;;;;;;5029735;28;20238;-49
2024/01/29 09:25:19;;;;;;;0.00;0.00;;;27.60;39.20;;;;;;5029535;28;20228;-47
2024/01/29 09:27:51;;;;;;;0.00;0.00;;;27.60;39.20;;;;;;5028984;28;20389;-48
2024/01/29 09:30:22;;;;;;;0.00;0.00;;;27.60;39.20;;;;;;5030050;28;20200;-48
2024/01/29 09:32:53;;;;;;;0.00;0.00;;;27.60;39.20;;;;;;5030339;28;20204;-47
2024/01/29 09:35:24;;;;;;;0.00;0.00;;;27.60;39.20;;;;;;5029988;28;20671;-50
2024/01/29 09:37:54;;;;;;;0.00;0.00;;;27.50;39.20;;;;;;5029632;28;20223;-46
2024/01/29 09:40:25;;;;;;;0.00;0.00;;;27.50;39.20;;;;;;5029893;28;20211;-50
2024/01/29 09:42:59;;;;;;;0.00;0.00;;;27.50;39.20;;;;;;5033000;28;20196;-51
2024/01/29 09:45:31;;;;;;;0.00;0.00;;;27.50;39.20;;;;;;5032998;28;20228;-48
2024/01/29 09:48:03;;;;;;;0.00;0.00;;;27.40;39.10;;;;;;5032860;28;20224;-47
2024/01/29 09:50:34;;;;;;;0.00;0.00;;;27.40;39.10;;;;;;5032986;28;20204;-49
2024/01/29 09:53:07;;;;;;;0.00;0.00;;;27.40;39.10;;;;;;5033695;28;20522;-51
2024/01/29 09:55:38;;;;;;;0.00;0.00;;;27.40;39.10;;;;;;5033080;28;20192;-50
2024/01/29 09:58:10;;;;;;;0.00;0.00;;;27.40;39.20;;;;;;5032682;28;20688;-49
2024/01/29 10:00:41;;;;;;;0.00;0.00;;;27.30;39.10;;;;;;5032484;28;20200;-49
2024/01/29 10:03:17;;;;;;;0.00;0.00;;;27.30;39.10;;;;;;5032235;28;20648;-50
2024/01/29 10:05:49;;;;;;;0.00;0.00;;;27.30;39.20;;;;;;5031660;28;20667;-43
2024/01/29 10:08:20;;;;;;;0.00;0.00;;;27.30;39.70;;;;;;5030148;28;20208;-51
2024/01/29 10:10:52;;;;;;;0.00;0.00;;;27.20;39.10;;;;;;5032406;28;21154;-49
2024/01/29 10:13:24;;;;;;;0.00;0.00;;;27.20;39.10;;;;;;5030454;28;20195;-51
2024/01/29 10:15:55;;;;;;;0.00;0.00;;;27.20;39.10;;;;;;5031784;28;20192;-51
2024/01/29 10:18:26;;;;;;;0.00;0.00;;;27.10;39.10;;;;;;5031561;28;20192;-49
2024/01/29 10:21:07;;;;;;;0.00;0.00;;;27.10;39.10;;;;;;5028843;28;20184;-46
2024/01/29 10:23:37;;;;;;;0.00;0.00;;;27.10;39.10;;;;;;5030177;28;20633;-50
2024/01/29 10:26:08;;;;;;;0.00;0.00;;;27.10;39.10;;;;;;5032063;28;20224;-50
2024/01/29 10:28:41;;;;;;;0.00;0.00;;;27.00;39.10;;;;;;5026031;28;20185;-47
2024/01/29 10:31:11;;;;;;;0.00;0.00;;;27.00;39.70;;;;;;5023930;28;20199;-47
2024/01/29 10:33:43;;;;;;;0.00;0.00;;;27.00;39.20;;;;;;5031954;28;20188;-46
2024/01/29 10:36:16;;;;;;;0.00;0.00;;;27.00;39.20;;;;;;5031688;28;20185;-45
2024/01/29 10:38:49;;;;;;;0.00;0.00;;;26.90;39.10;;;;;;5031558;28;20188;-51
2024/01/29 10:41:21;;;;;;;0.00;0.00;;;26.90;39.20;;;;;;5029300;28;20192;-52
2024/01/29 10:43:55;;;;;;;0.00;0.00;;;26.90;39.20;;;;;;5031250;28;20531;-50
2024/01/29 10:46:26;;;;;;;0.00;0.00;;;26.80;39.10;;;;;;5031152;28;20223;-50
2024/01/29 10:48:58;;;;;;;0.00;0.00;;;26.80;39.20;;;;;;5028861;28;20563;-52
2024/01/29 10:51:30;;;;;;;0.00;0.00;;;26.80;39.20;;;;;;5031526;28;20254;-51
2024/01/29 10:54:02;;;;;;;0.00;0.00;;;26.70;39.10;;;;;;5029453;28;20200;-48
2024/01/29 10:56:34;;;;;;;0.00;0.00;;;26.70;39.20;;;;;;5020556;28;20303;-49
2024/01/29 10:59:07;;;;;;;0.00;0.00;;;26.70;39.20;;;;;;5021458;28;20200;-48
2024/01/29 11:01:39;;;;;;;0.00;0.00;;;26.70;39.20;;;;;;5030579;28;20246;-48
2024/01/29 11:04:11;;;;;;;0.00;0.00;;;26.60;39.10;;;;;;5031075;28;20192;-50
2024/01/29 11:06:47;;;;;;;0.00;0.00;;;26.60;39.20;;;;;;5029162;28;20227;-51
2024/01/29 11:09:20;;;;;;;0.00;0.00;;;26.60;39.20;;;;;;5031629;28;20184;-51
2024/01/29 11:11:51;;;;;;;0.00;0.00;;;26.50;39.10;;;;;;5029062;28;20272;-46
2024/01/29 11:14:24;;;;;;;0.00;0.00;;;26.50;39.10;;;;;;5033943;28;20188;-48
2024/01/29 11:16:55;;;;;;;0.00;0.00;;;26.50;39.20;;;;;;5031533;28;20239;-48
2024/01/29 11:19:29;;;;;;;0.00;0.00;;;26.50;39.20;;;;;;5031257;28;20204;-47
2024/01/29 11:22:03;;;;;;;0.00;0.00;;;26.40;39.20;;;;;;5031541;28;20254;-47
2024/01/29 11:24:36;;;;;;;0.00;0.00;;;26.40;39.20;;;;;;5031572;28;20199;-46
2024/01/29 11:27:12;;;;;;;0.00;0.00;;;26.40;39.30;;;;;;5035606;28;20227;-42
2024/01/29 11:29:49;;;;;;;0.00;0.00;;;26.30;39.20;;;;;;5038415;28;20207;-50
2024/01/29 11:32:20;;;;;;;0.00;0.00;;;26.30;39.20;;;;;;5037942;28;20651;-51
2024/01/29 11:34:56;;;;;;;0.00;0.00;;;26.20;39.20;;;;;;5037995;28;20196;-47
2024/01/29 11:37:30;;;;;;;0.00;0.00;;;26.20;39.30;;;;;;5038058;28;20298;-49
2024/01/29 11:40:01;;;;;;;0.00;0.00;;;26.20;39.30;;;;;;5038181;28;20245;-52
2024/01/29 11:42:31;;;;;;;0.00;0.00;;;26.20;39.30;;;;;;5037973;28;20195;-46
2024/01/29 11:45:06;;;;;;;0.00;0.00;;;26.10;39.30;;;;;;5037926;28;20200;-49
2024/01/29 11:47:37;;;;;;;0.00;0.00;;;26.10;39.30;;;;;;5037747;28;20223;-49
2024/01/29 11:50:09;;;;;;;0.00;0.00;;;26.10;39.30;;;;;;5037873;28;20200;-43
2024/01/29 11:52:40;;;;;;;0.00;0.00;;;26.10;39.30;;;;;;5037664;28;20203;-46
2024/01/29 11:55:11;;;;;;;0.00;0.00;;;26.10;39.30;;;;;;5037298;28;20196;-44
2024/01/29 11:57:46;;;;;;;0.00;0.00;;;26.00;39.30;;;;;;5037038;28;20227;-50
2024/01/29 12:00:20;;;;;;;0.00;0.00;;;26.00;39.30;;;;;;5037477;28;20257;-46
2024/01/29 12:02:51;;;;;;;0.00;0.00;;;26.00;39.40;;;;;;5037517;28;20730;-49
2024/01/29 12:05:22;;;;;;;0.00;0.00;;;25.90;39.30;;;;;;5037177;28;20662;-49
2024/01/29 12:07:53;;;;;;;0.00;0.00;;;25.90;39.30;;;;;;5037360;28;20243;-51
2024/01/29 12:10:24;;;;;;;0.00;0.00;;;25.90;39.40;;;;;;5037353;28;20188;-46
2024/01/29 12:12:54;;;;;;;0.00;0.00;;;25.90;39.40;;;;;;5037847;28;20200;-43
2024/01/29 12:15:27;;;;;;;0.00;0.00;;;25.80;39.40;;;;;;5037798;28;20227;-52
2024/01/29 12:17:58;;;;;;;0.00;0.00;;;25.80;39.40;;;;;;5037512;28;20277;-45
2024/01/29 12:20:29;;;;;;;0.00;0.00;;;25.80;39.40;;;;;;5037254;28;20200;-44
2024/01/29 12:23:00;;;;;;;0.00;0.00;;;25.80;39.40;;;;;;5037648;28;20648;-45
2024/01/29 12:25:31;;;;;;;0.00;0.00;;;25.80;39.50;;;;;;5037812;28;20306;-44
2024/01/29 12:28:06;;;;;;;0.00;0.00;;;25.70;39.50;;;;;;5037497;28;20215;-45
2024/01/29 12:30:39;;;;;;;0.00;0.00;;;25.70;39.50;;;;;;5037299;28;20202;-53
2024/01/29 12:33:10;;;;;;;0.00;0.00;;;25.60;39.40;;;;;;5036858;28;20558;-49
2024/01/29 12:35:40;;;;;;;0.00;0.00;;;25.60;39.40;;;;;;5036515;28;20648;-52
2024/01/29 12:38:14;;;;;;;0.00;0.00;;;25.60;39.50;;;;;;5034472;28;20216;-49
2024/01/29 12:40:45;;;;;;;0.00;0.00;;;25.60;39.50;;;;;;5034325;28;20197;-47
2024/01/29 12:43:18;;;;;;;0.00;0.00;;;25.50;39.50;;;;;;5034446;28;20200;-48
2024/01/29 12:45:50;;;;;;;0.00;0.00;;;25.50;39.50;;;;;;5034258;28;20196;-51
2024/01/29 12:48:26;;;;;;;0.00;0.00;;;25.50;39.50;;;;;;5034171;28;20219;-52
2024/01/29 12:50:57;;;;;;;0.00;0.00;;;25.50;39.50;;;;;;5033639;28;20555;-43
2024/01/29 12:53:27;;;;;;;0.00;0.00;;;25.50;39.60;;;;;;5034502;28;20279;-48
2024/01/29 12:55:58;;;;;;;0.00;0.00;;;25.50;39.60;;;;;;5034307;28;20207;-44
2024/01/29 12:58:29;;;;;;;0.00;0.00;;;25.40;39.50;;;;;;5044196;28;20204;-49
2024/01/29 13:01:02;;;;;;;0.00;0.00;;;25.40;39.60;;;;;;5054022;28;20200;-55
2024/01/29 13:03:32;;;;;;;0.00;0.00;;;25.40;39.60;;;;;;5054211;28;20644;-43
2024/01/29 13:06:02;;;;;;;0.00;0.00;;;25.30;39.60;;;;;;5053820;28;20220;-43
2024/01/29 13:08:33;;;;;;;0.00;0.00;;;25.30;39.60;;;;;;5054083;28;20207;-54
2024/01/29 13:11:04;;;;;;;0.00;0.00;;;25.30;39.70;;;;;;5053875;28;20204;-53